sensor_id;sensor_type;location;lat;lon;timestamp;temperature;humidity
28460;DHT22;32528;45.712;9.192;2022-09-28T00:00:38;11.40;88.00
28460;DHT22;32528;45.712;9.192;2022-09-28T00:02:41;11.40;88.80
28460;DHT22;32528;45.712;9.192;2022-09-28T00:04:41;11.30;90.00
28460;DHT22;32528;45.712;9.192;2022-09-28T00:06:42;11.20;90.10
28460;DHT22;32528;45.712;9.192;2022-09-28T00:08:43;11.20;90.30
28460;DHT22;32528;45.712;9.192;2022-09-28T00:10:43;11.10;90.50
28460;DHT22;32528;45.712;9.192;2022-09-28T00:12:45;11.10;90.80
28460;DHT22;32528;45.712;9.192;2022-09-28T00:14:46;11.10;90.70
28460;DHT22;32528;45.712;9.192;2022-09-28T00:16:46;11.00;90.30
28460;DHT22;32528;45.712;9.192;2022-09-28T00:18:48;11.00;90.20
28460;DHT22;32528;45.712;9.192;2022-09-28T00:20:58;11.00;90.30
28460;DHT22;32528;45.712;9.192;2022-09-28T00:22:59;11.00;90.30
28460;DHT22;32528;45.712;9.192;2022-09-28T00:24:59;11.00;90.20
28460;DHT22;32528;45.712;9.192;2022-09-28T00:27:00;11.00;90.40
28460;DHT22;32528;45.712;9.192;2022-09-28T00:29:02;11.00;89.70
28460;DHT22;32528;45.712;9.192;2022-09-28T00:31:02;11.00;89.50
28460;DHT22;32528;45.712;9.192;2022-09-28T00:33:04;11.10;89.40
28460;DHT22;32528;45.712;9.192;2022-09-28T00:35:04;11.00;89.00
28460;DHT22;32528;45.712;9.192;2022-09-28T00:37:05;11.10;90.00
28460;DHT22;32528;45.712;9.192;2022-09-28T00:39:08;11.10;89.70
28460;DHT22;32528;45.712;9.192;2022-09-28T00:41:11;11.10;89.70
28460;DHT22;32528;45.712;9.192;2022-09-28T00:43:16;11.10;89.60
28460;DHT22;32528;45.712;9.192;2022-09-28T00:45:17;11.10;89.10
28460;DHT22;32528;45.712;9.192;2022-09-28T00:49:20;11.20;89.20
28460;DHT22;32528;45.712;9.192;2022-09-28T00:51:22;11.10;89.00
28460;DHT22;32528;45.712;9.192;2022-09-28T00:53:24;11.10;89.40
28460;DHT22;32528;45.712;9.192;2022-09-28T00:55:30;11.10;89.40
28460;DHT22;32528;45.712;9.192;2022-09-28T00:57:34;11.10;88.90
28460;DHT22;32528;45.712;9.192;2022-09-28T00:59:35;11.10;88.40
28460;DHT22;32528;45.712;9.192;2022-09-28T01:01:36;11.20;88.20
28460;DHT22;32528;45.712;9.192;2022-09-28T01:03:37;11.20;87.50
28460;DHT22;32528;45.712;9.192;2022-09-28T01:05:38;11.30;88.20
28460;DHT22;32528;45.712;9.192;2022-09-28T01:07:38;11.30;88.80
28460;DHT22;32528;45.712;9.192;2022-09-28T01:09:40;11.30;88.50
28460;DHT22;32528;45.712;9.192;2022-09-28T01:11:41;11.40;88.10
28460;DHT22;32528;45.712;9.192;2022-09-28T01:13:42;11.40;88.00
28460;DHT22;32528;45.712;9.192;2022-09-28T01:15:48;11.40;88.50
28460;DHT22;32528;45.712;9.192;2022-09-28T01:17:56;11.40;88.80
28460;DHT22;32528;45.712;9.192;2022-09-28T01:24:39;11.30;90.00
28460;DHT22;32528;45.712;9.192;2022-09-28T01:26:55;11.30;90.10
28460;DHT22;32528;45.712;9.192;2022-09-28T01:29:01;11.30;90.00
28460;DHT22;32528;45.712;9.192;2022-09-28T01:31:11;11.30;90.00
28460;DHT22;32528;45.712;9.192;2022-09-28T01:33:14;11.30;90.20
28460;DHT22;32528;45.712;9.192;2022-09-28T01:37:25;11.30;90.20
28460;DHT22;32528;45.712;9.192;2022-09-28T01:39:32;11.30;90.10
28460;DHT22;32528;45.712;9.192;2022-09-28T01:41:34;11.20;90.10
28460;DHT22;32528;45.712;9.192;2022-09-28T01:43:40;11.20;90.00
28460;DHT22;32528;45.712;9.192;2022-09-28T01:45:43;11.30;90.00
28460;DHT22;32528;45.712;9.192;2022-09-28T01:47:45;11.40;90.10
28460;DHT22;32528;45.712;9.192;2022-09-28T01:49:51;11.40;90.10
28460;DHT22;32528;45.712;9.192;2022-09-28T01:53:58;11.40;90.30
28460;DHT22;32528;45.712;9.192;2022-09-28T01:56:04;11.40;90.40
28460;DHT22;32528;45.712;9.192;2022-09-28T02:00:10;11.40;90.40
28460;DHT22;32528;45.712;9.192;2022-09-28T02:02:16;11.40;90.40
28460;DHT22;32528;45.712;9.192;2022-09-28T02:04:26;11.40;90.30
28460;DHT22;32528;45.712;9.192;2022-09-28T02:06:32;11.40;90.40
28460;DHT22;32528;45.712;9.192;2022-09-28T02:08:36;11.40;90.60
28460;DHT22;32528;45.712;9.192;2022-09-28T02:10:43;11.40;90.80
28460;DHT22;32528;45.712;9.192;2022-09-28T02:12:48;11.40;91.10
28460;DHT22;32528;45.712;9.192;2022-09-28T02:14:53;11.40;91.10
28460;DHT22;32528;45.712;9.192;2022-09-28T02:16:54;11.40;91.00
28460;DHT22;32528;45.712;9.192;2022-09-28T02:19:01;11.40;91.10
28460;DHT22;32528;45.712;9.192;2022-09-28T02:21:12;11.40;90.80
28460;DHT22;32528;45.712;9.192;2022-09-28T02:23:14;11.40;91.00
28460;DHT22;32528;45.712;9.192;2022-09-28T02:25:20;11.50;91.00
28460;DHT22;32528;45.712;9.192;2022-09-28T02:29:42;11.40;91.20
28460;DHT22;32528;45.712;9.192;2022-09-28T02:31:43;11.50;91.20
28460;DHT22;32528;45.712;9.192;2022-09-28T02:33:44;11.50;91.20
28460;DHT22;32528;45.712;9.192;2022-09-28T02:35:46;11.50;91.20
28460;DHT22;32528;45.712;9.192;2022-09-28T02:37:47;11.50;91.20
28460;DHT22;32528;45.712;9.192;2022-09-28T02:39:48;11.50;91.30
28460;DHT22;32528;45.712;9.192;2022-09-28T02:44:06;11.40;91.50
28460;DHT22;32528;45.712;9.192;2022-09-28T02:46:25;11.40;91.50
28460;DHT22;32528;45.712;9.192;2022-09-28T03:04:29;11.60;91.30
28460;DHT22;32528;45.712;9.192;2022-09-28T03:08:39;11.70;91.50
28460;DHT22;32528;45.712;9.192;2022-09-28T03:11:27;11.70;91.40
28460;DHT22;32528;45.712;9.192;2022-09-28T03:13:08;11.70;91.30
28460;DHT22;32528;45.712;9.192;2022-09-28T03:15:12;11.80;91.40
28460;DHT22;32528;45.712;9.192;2022-09-28T03:17:13;11.80;91.50
28460;DHT22;32528;45.712;9.192;2022-09-28T03:19:18;11.80;91.40
28460;DHT22;32528;45.712;9.192;2022-09-28T03:21:20;11.80;91.50
28460;DHT22;32528;45.712;9.192;2022-09-28T03:23:20;11.90;91.50
28460;DHT22;32528;45.712;9.192;2022-09-28T03:25:21;11.90;91.60
28460;DHT22;32528;45.712;9.192;2022-09-28T03:27:21;11.90;91.90
28460;DHT22;32528;45.712;9.192;2022-09-28T03:29:23;11.90;92.00
28460;DHT22;32528;45.712;9.192;2022-09-28T03:31:31;11.90;92.10
28460;DHT22;32528;45.712;9.192;2022-09-28T03:33:31;12.00;92.20
28460;DHT22;32528;45.712;9.192;2022-09-28T03:35:32;12.00;92.20
28460;DHT22;32528;45.712;9.192;2022-09-28T03:37:33;12.00;92.40
28460;DHT22;32528;45.712;9.192;2022-09-28T03:39:34;12.00;92.50
28460;DHT22;32528;45.712;9.192;2022-09-28T03:41:34;12.00;92.50
28460;DHT22;32528;45.712;9.192;2022-09-28T03:43:35;12.10;92.70
28460;DHT22;32528;45.712;9.192;2022-09-28T03:45:37;12.10;92.50
28460;DHT22;32528;45.712;9.192;2022-09-28T03:47:37;12.10;92.60
28460;DHT22;32528;45.712;9.192;2022-09-28T03:49:38;12.20;92.90
28460;DHT22;32528;45.712;9.192;2022-09-28T03:51:39;12.20;93.00
28460;DHT22;32528;45.712;9.192;2022-09-28T03:53:39;12.20;93.10
28460;DHT22;32528;45.712;9.192;2022-09-28T03:55:40;12.30;93.30
28460;DHT22;32528;45.712;9.192;2022-09-28T03:57:41;12.20;93.40
28460;DHT22;32528;45.712;9.192;2022-09-28T03:59:41;12.30;93.30
28460;DHT22;32528;45.712;9.192;2022-09-28T04:01:42;12.30;93.40
28460;DHT22;32528;45.712;9.192;2022-09-28T04:03:43;12.40;93.50
28460;DHT22;32528;45.712;9.192;2022-09-28T04:05:48;12.50;93.70
28460;DHT22;32528;45.712;9.192;2022-09-28T04:07:48;12.50;93.70
28460;DHT22;32528;45.712;9.192;2022-09-28T04:09:49;12.60;93.70
28460;DHT22;32528;45.712;9.192;2022-09-28T04:11:51;12.60;93.60
28460;DHT22;32528;45.712;9.192;2022-09-28T04:13:52;12.60;93.60
28460;DHT22;32528;45.712;9.192;2022-09-28T04:15:54;12.60;93.60
28460;DHT22;32528;45.712;9.192;2022-09-28T04:17:55;12.70;93.60
28460;DHT22;32528;45.712;9.192;2022-09-28T04:20:21;12.60;93.70
28460;DHT22;32528;45.712;9.192;2022-09-28T04:22:37;12.60;93.80
28460;DHT22;32528;45.712;9.192;2022-09-28T04:24:38;12.60;93.70
28460;DHT22;32528;45.712;9.192;2022-09-28T04:26:41;12.70;93.20
28460;DHT22;32528;45.712;9.192;2022-09-28T04:28:44;12.70;93.00
28460;DHT22;32528;45.712;9.192;2022-09-28T04:31:06;12.70;93.20
28460;DHT22;32528;45.712;9.192;2022-09-28T04:33:07;12.80;92.80
28460;DHT22;32528;45.712;9.192;2022-09-28T04:35:08;12.80;92.90
28460;DHT22;32528;45.712;9.192;2022-09-28T04:37:11;12.70;93.00
28460;DHT22;32528;45.712;9.192;2022-09-28T04:39:13;12.70;92.80
28460;DHT22;32528;45.712;9.192;2022-09-28T04:41:16;12.70;92.30
28460;DHT22;32528;45.712;9.192;2022-09-28T04:43:17;12.70;92.20
28460;DHT22;32528;45.712;9.192;2022-09-28T04:45:18;12.70;92.30
28460;DHT22;32528;45.712;9.192;2022-09-28T04:47:20;12.80;92.30
28460;DHT22;32528;45.712;9.192;2022-09-28T04:49:39;12.70;92.60
28460;DHT22;32528;45.712;9.192;2022-09-28T04:51:42;12.70;92.50
28460;DHT22;32528;45.712;9.192;2022-09-28T04:53:43;12.70;92.70
28460;DHT22;32528;45.712;9.192;2022-09-28T04:55:43;12.60;92.80
28460;DHT22;32528;45.712;9.192;2022-09-28T04:57:44;12.70;92.90
28460;DHT22;32528;45.712;9.192;2022-09-28T04:59:45;12.70;93.20
28460;DHT22;32528;45.712;9.192;2022-09-28T05:01:46;12.70;93.10
28460;DHT22;32528;45.712;9.192;2022-09-28T05:04:05;12.70;93.20
28460;DHT22;32528;45.712;9.192;2022-09-28T05:06:24;12.70;93.10
28460;DHT22;32528;45.712;9.192;2022-09-28T05:08:33;12.70;93.20
28460;DHT22;32528;45.712;9.192;2022-09-28T05:10:34;12.70;93.20
28460;DHT22;32528;45.712;9.192;2022-09-28T05:12:35;12.70;93.30
28460;DHT22;32528;45.712;9.192;2022-09-28T05:14:36;12.60;93.30
28460;DHT22;32528;45.712;9.192;2022-09-28T05:16:39;12.60;93.40
28460;DHT22;32528;45.712;9.192;2022-09-28T05:18:55;12.60;93.40
28460;DHT22;32528;45.712;9.192;2022-09-28T05:20:55;12.60;93.40
28460;DHT22;32528;45.712;9.192;2022-09-28T05:22:56;12.60;93.60
28460;DHT22;32528;45.712;9.192;2022-09-28T05:24:57;12.60;93.50
28460;DHT22;32528;45.712;9.192;2022-09-28T05:26:59;12.60;93.50
28460;DHT22;32528;45.712;9.192;2022-09-28T05:29:00;12.50;93.50
28460;DHT22;32528;45.712;9.192;2022-09-28T05:31:14;12.50;93.50
28460;DHT22;32528;45.712;9.192;2022-09-28T05:33:33;12.50;93.50
28460;DHT22;32528;45.712;9.192;2022-09-28T05:35:44;12.50;93.80
28460;DHT22;32528;45.712;9.192;2022-09-28T05:37:45;12.60;93.50
28460;DHT22;32528;45.712;9.192;2022-09-28T05:39:46;12.50;93.50
28460;DHT22;32528;45.712;9.192;2022-09-28T05:41:46;12.60;93.60
28460;DHT22;32528;45.712;9.192;2022-09-28T05:43:47;12.70;93.60
28460;DHT22;32528;45.712;9.192;2022-09-28T05:45:48;12.70;93.40
28460;DHT22;32528;45.712;9.192;2022-09-28T05:47:49;12.80;93.20
28460;DHT22;32528;45.712;9.192;2022-09-28T05:49:52;12.80;93.00
28460;DHT22;32528;45.712;9.192;2022-09-28T05:51:53;12.90;93.00
28460;DHT22;32528;45.712;9.192;2022-09-28T05:53:54;12.90;92.90
28460;DHT22;32528;45.712;9.192;2022-09-28T05:55:57;12.90;92.90
28460;DHT22;32528;45.712;9.192;2022-09-28T05:57:59;12.90;92.90
28460;DHT22;32528;45.712;9.192;2022-09-28T05:59:59;12.90;92.90
28460;DHT22;32528;45.712;9.192;2022-09-28T06:02:01;12.90;92.80
28460;DHT22;32528;45.712;9.192;2022-09-28T06:04:02;13.00;92.90
28460;DHT22;32528;45.712;9.192;2022-09-28T06:06:03;13.00;93.00
28460;DHT22;32528;45.712;9.192;2022-09-28T06:08:05;13.10;92.90
28460;DHT22;32528;45.712;9.192;2022-09-28T06:10:07;13.10;92.70
28460;DHT22;32528;45.712;9.192;2022-09-28T06:12:16;13.20;93.50
28460;DHT22;32528;45.712;9.192;2022-09-28T06:14:28;13.30;94.50
28460;DHT22;32528;45.712;9.192;2022-09-28T06:16:29;14.40;99.90
28460;DHT22;32528;45.712;9.192;2022-09-28T06:18:30;14.70;92.30
28460;DHT22;32528;45.712;9.192;2022-09-28T06:20:52;14.50;91.80
28460;DHT22;32528;45.712;9.192;2022-09-28T06:23:03;14.40;91.90
28460;DHT22;32528;45.712;9.192;2022-09-28T06:25:04;14.20;91.80
28460;DHT22;32528;45.712;9.192;2022-09-28T06:27:06;14.20;92.10
28460;DHT22;32528;45.712;9.192;2022-09-28T06:29:07;14.10;92.30
28460;DHT22;32528;45.712;9.192;2022-09-28T06:31:07;14.10;92.60
28460;DHT22;32528;45.712;9.192;2022-09-28T06:33:15;14.10;93.00
28460;DHT22;32528;45.712;9.192;2022-09-28T06:35:16;14.10;93.20
28460;DHT22;32528;45.712;9.192;2022-09-28T06:37:16;14.20;92.70
28460;DHT22;32528;45.712;9.192;2022-09-28T06:39:18;14.10;92.50
28460;DHT22;32528;45.712;9.192;2022-09-28T06:41:18;14.20;92.80
28460;DHT22;32528;45.712;9.192;2022-09-28T06:43:19;14.20;92.80
28460;DHT22;32528;45.712;9.192;2022-09-28T06:45:38;14.20;92.40
28460;DHT22;32528;45.712;9.192;2022-09-28T06:47:59;14.20;92.40
28460;DHT22;32528;45.712;9.192;2022-09-28T06:50:12;14.30;91.90
28460;DHT22;32528;45.712;9.192;2022-09-28T06:52:24;14.40;91.90
28460;DHT22;32528;45.712;9.192;2022-09-28T06:54:45;14.50;91.80
28460;DHT22;32528;45.712;9.192;2022-09-28T06:56:57;14.60;91.50
28460;DHT22;32528;45.712;9.192;2022-09-28T06:58:58;14.70;91.90
28460;DHT22;32528;45.712;9.192;2022-09-28T07:00:58;14.70;91.70
28460;DHT22;32528;45.712;9.192;2022-09-28T07:03:00;14.80;91.70
28460;DHT22;32528;45.712;9.192;2022-09-28T07:05:20;14.90;91.30
28460;DHT22;32528;45.712;9.192;2022-09-28T07:07:46;14.90;91.40
28460;DHT22;32528;45.712;9.192;2022-09-28T07:10:05;14.90;90.90
28460;DHT22;32528;45.712;9.192;2022-09-28T07:12:28;15.10;90.90
28460;DHT22;32528;45.712;9.192;2022-09-28T07:14:35;15.20;91.00
28460;DHT22;32528;45.712;9.192;2022-09-28T07:16:35;15.20;90.60
28460;DHT22;32528;45.712;9.192;2022-09-28T07:18:37;15.30;90.40
28460;DHT22;32528;45.712;9.192;2022-09-28T07:20:37;15.40;90.80
28460;DHT22;32528;45.712;9.192;2022-09-28T07:22:38;15.40;90.40
28460;DHT22;32528;45.712;9.192;2022-09-28T07:24:39;15.50;90.20
28460;DHT22;32528;45.712;9.192;2022-09-28T07:27:16;15.60;89.70
28460;DHT22;32528;45.712;9.192;2022-09-28T07:29:46;15.70;90.20
28460;DHT22;32528;45.712;9.192;2022-09-28T07:32:10;15.90;90.10
28460;DHT22;32528;45.712;9.192;2022-09-28T07:34:29;16.00;89.20
28460;DHT22;32528;45.712;9.192;2022-09-28T07:36:44;16.10;88.40
28460;DHT22;32528;45.712;9.192;2022-09-28T07:38:45;16.20;88.90
28460;DHT22;32528;45.712;9.192;2022-09-28T07:40:46;16.30;88.70
28460;DHT22;32528;45.712;9.192;2022-09-28T07:43:05;16.40;88.40
28460;DHT22;32528;45.712;9.192;2022-09-28T07:45:06;16.50;87.40
28460;DHT22;32528;45.712;9.192;2022-09-28T07:47:07;16.60;86.70
28460;DHT22;32528;45.712;9.192;2022-09-28T07:49:43;16.70;85.30
28460;DHT22;32528;45.712;9.192;2022-09-28T07:52:08;16.80;84.60
28460;DHT22;32528;45.712;9.192;2022-09-28T07:54:17;17.00;84.40
28460;DHT22;32528;45.712;9.192;2022-09-28T07:56:37;17.00;85.20
28460;DHT22;32528;45.712;9.192;2022-09-28T07:58:45;17.10;85.60
28460;DHT22;32528;45.712;9.192;2022-09-28T08:01:05;17.20;85.40
28460;DHT22;32528;45.712;9.192;2022-09-28T08:03:07;17.30;83.60
28460;DHT22;32528;45.712;9.192;2022-09-28T08:05:08;17.30;84.20
28460;DHT22;32528;45.712;9.192;2022-09-28T08:07:10;17.40;84.40
28460;DHT22;32528;45.712;9.192;2022-09-28T08:09:11;17.50;85.70
28460;DHT22;32528;45.712;9.192;2022-09-28T08:11:40;17.60;87.00
28460;DHT22;32528;45.712;9.192;2022-09-28T08:13:57;17.70;87.30
28460;DHT22;32528;45.712;9.192;2022-09-28T08:16:34;17.70;86.80
28460;DHT22;32528;45.712;9.192;2022-09-28T08:18:48;17.70;87.20
28460;DHT22;32528;45.712;9.192;2022-09-28T08:20:50;17.80;87.30
28460;DHT22;32528;45.712;9.192;2022-09-28T08:23:09;17.90;87.10
28460;DHT22;32528;45.712;9.192;2022-09-28T08:25:12;18.00;87.60
28460;DHT22;32528;45.712;9.192;2022-09-28T08:27:13;18.00;86.70
28460;DHT22;32528;45.712;9.192;2022-09-28T08:29:14;18.10;86.60
28460;DHT22;32528;45.712;9.192;2022-09-28T08:31:25;18.20;86.90
28460;DHT22;32528;45.712;9.192;2022-09-28T08:33:51;18.10;87.00
28460;DHT22;32528;45.712;9.192;2022-09-28T08:36:25;18.10;87.00
28460;DHT22;32528;45.712;9.192;2022-09-28T08:38:34;18.10;88.50
28460;DHT22;32528;45.712;9.192;2022-09-28T08:41:15;18.20;88.00
28460;DHT22;32528;45.712;9.192;2022-09-28T08:46:08;18.40;87.10
28460;DHT22;32528;45.712;9.192;2022-09-28T08:48:32;18.40;87.10
28460;DHT22;32528;45.712;9.192;2022-09-28T08:51:04;18.40;87.40
28460;DHT22;32528;45.712;9.192;2022-09-28T08:53:52;18.50;87.10
28460;DHT22;32528;45.712;9.192;2022-09-28T08:55:58;18.40;86.90
28460;DHT22;32528;45.712;9.192;2022-09-28T08:58:02;18.40;87.30
28460;DHT22;32528;45.712;9.192;2022-09-28T09:00:09;18.40;87.10
28460;DHT22;32528;45.712;9.192;2022-09-28T09:02:15;18.40;87.20
28460;DHT22;32528;45.712;9.192;2022-09-28T09:04:17;18.50;87.20
28460;DHT22;32528;45.712;9.192;2022-09-28T09:17:42;18.10;87.70
28460;DHT22;32528;45.712;9.192;2022-09-28T09:24:32;18.10;87.50
28460;DHT22;32528;45.712;9.192;2022-09-28T09:26:38;18.10;88.20
28460;DHT22;32528;45.712;9.192;2022-09-28T09:35:11;17.90;88.00
28460;DHT22;32528;45.712;9.192;2022-09-28T09:44:54;17.70;88.30
28460;DHT22;32528;45.712;9.192;2022-09-28T09:47:19;17.70;89.00
28460;DHT22;32528;45.712;9.192;2022-09-28T09:53:53;17.60;90.10
28460;DHT22;32528;45.712;9.192;2022-09-28T09:56:00;17.70;90.30
28460;DHT22;32528;45.712;9.192;2022-09-28T09:58:32;17.60;90.80
28460;DHT22;32528;45.712;9.192;2022-09-28T10:00:41;17.50;91.10
28460;DHT22;32528;45.712;9.192;2022-09-28T10:02:55;17.40;91.60
28460;DHT22;32528;45.712;9.192;2022-09-28T10:07:14;17.40;91.90
28460;DHT22;32528;45.712;9.192;2022-09-28T10:09:25;17.40;91.90
28460;DHT22;32528;45.712;9.192;2022-09-28T10:11:35;17.40;91.70
28460;DHT22;32528;45.712;9.192;2022-09-28T10:13:39;17.40;92.40
28460;DHT22;32528;45.712;9.192;2022-09-28T10:15:57;17.50;92.90
28460;DHT22;32528;45.712;9.192;2022-09-28T10:18:04;17.50;92.60
28460;DHT22;32528;45.712;9.192;2022-09-28T10:20:38;17.40;93.00
28460;DHT22;32528;45.712;9.192;2022-09-28T10:22:48;17.40;93.20
28460;DHT22;32528;45.712;9.192;2022-09-28T10:24:51;17.40;93.50
28460;DHT22;32528;45.712;9.192;2022-09-28T10:26:54;17.50;93.10
28460;DHT22;32528;45.712;9.192;2022-09-28T10:28:57;17.50;93.20
28460;DHT22;32528;45.712;9.192;2022-09-28T10:30:59;17.60;93.40
28460;DHT22;32528;45.712;9.192;2022-09-28T10:33:00;17.70;92.60
28460;DHT22;32528;45.712;9.192;2022-09-28T10:35:15;17.70;92.80
28460;DHT22;32528;45.712;9.192;2022-09-28T10:37:23;17.70;92.80
28460;DHT22;32528;45.712;9.192;2022-09-28T10:39:49;17.70;92.70
28460;DHT22;32528;45.712;9.192;2022-09-28T10:41:51;17.80;92.90
28460;DHT22;32528;45.712;9.192;2022-09-28T10:43:56;17.90;93.00
28460;DHT22;32528;45.712;9.192;2022-09-28T10:46:13;18.10;92.90
28460;DHT22;32528;45.712;9.192;2022-09-28T10:48:19;18.10;92.00
28460;DHT22;32528;45.712;9.192;2022-09-28T10:50:21;18.10;91.90
28460;DHT22;32528;45.712;9.192;2022-09-28T10:54:31;18.20;91.90
28460;DHT22;32528;45.712;9.192;2022-09-28T10:56:35;18.10;91.80
28460;DHT22;32528;45.712;9.192;2022-09-28T10:58:40;18.10;92.20
28460;DHT22;32528;45.712;9.192;2022-09-28T11:00:46;18.10;91.90
28460;DHT22;32528;45.712;9.192;2022-09-28T11:02:51;18.10;92.40
28460;DHT22;32528;45.712;9.192;2022-09-28T11:04:56;18.00;91.80
28460;DHT22;32528;45.712;9.192;2022-09-28T11:06:57;18.10;92.50
28460;DHT22;32528;45.712;9.192;2022-09-28T11:09:01;18.10;91.90
28460;DHT22;32528;45.712;9.192;2022-09-28T11:11:03;18.10;92.00
28460;DHT22;32528;45.712;9.192;2022-09-28T11:13:04;18.20;91.80
28460;DHT22;32528;45.712;9.192;2022-09-28T11:15:15;18.30;91.90
28460;DHT22;32528;45.712;9.192;2022-09-28T11:21:26;18.40;91.30
28460;DHT22;32528;45.712;9.192;2022-09-28T11:23:32;18.30;91.90
28460;DHT22;32528;45.712;9.192;2022-09-28T11:25:54;18.40;91.70
28460;DHT22;32528;45.712;9.192;2022-09-28T11:27:56;18.40;90.80
28460;DHT22;32528;45.712;9.192;2022-09-28T11:29:57;18.50;90.80
28460;DHT22;32528;45.712;9.192;2022-09-28T11:32:06;18.50;90.80
28460;DHT22;32528;45.712;9.192;2022-09-28T11:34:24;18.70;90.70
28460;DHT22;32528;45.712;9.192;2022-09-28T11:39:03;18.80;90.80
28460;DHT22;32528;45.712;9.192;2022-09-28T11:41:33;18.90;91.10
28460;DHT22;32528;45.712;9.192;2022-09-28T11:46:00;18.90;90.40
28460;DHT22;32528;45.712;9.192;2022-09-28T11:48:12;18.90;90.10
28460;DHT22;32528;45.712;9.192;2022-09-28T11:50:26;18.90;89.90
28460;DHT22;32528;45.712;9.192;2022-09-28T11:52:35;19.00;90.60
28460;DHT22;32528;45.712;9.192;2022-09-28T11:54:44;19.20;90.40
28460;DHT22;32528;45.712;9.192;2022-09-28T11:56:48;19.40;89.90
28460;DHT22;32528;45.712;9.192;2022-09-28T11:58:51;19.70;90.00
28460;DHT22;32528;45.712;9.192;2022-09-28T12:01:07;19.90;88.20
28460;DHT22;32528;45.712;9.192;2022-09-28T12:03:40;19.90;87.70
28460;DHT22;32528;45.712;9.192;2022-09-28T12:06:26;20.00;86.70
28460;DHT22;32528;45.712;9.192;2022-09-28T12:08:40;20.20;86.80
28460;DHT22;32528;45.712;9.192;2022-09-28T12:10:37;20.20;85.90
28460;DHT22;32528;45.712;9.192;2022-09-28T12:12:52;20.20;85.90
28460;DHT22;32528;45.712;9.192;2022-09-28T12:14:54;20.50;85.30
28460;DHT22;32528;45.712;9.192;2022-09-28T12:16:59;20.70;84.50
28460;DHT22;32528;45.712;9.192;2022-09-28T12:19:05;20.80;83.60
28460;DHT22;32528;45.712;9.192;2022-09-28T12:21:12;20.90;83.80
28460;DHT22;32528;45.712;9.192;2022-09-28T12:23:19;20.90;83.40
28460;DHT22;32528;45.712;9.192;2022-09-28T12:25:23;20.80;83.10
28460;DHT22;32528;45.712;9.192;2022-09-28T12:29:41;20.70;83.30
28460;DHT22;32528;45.712;9.192;2022-09-28T12:33:47;20.60;83.20
28460;DHT22;32528;45.712;9.192;2022-09-28T12:53:24;20.90;81.70
28460;DHT22;32528;45.712;9.192;2022-09-28T12:59:38;21.20;81.00
28460;DHT22;32528;45.712;9.192;2022-09-28T13:06:24;21.30;79.90
28460;DHT22;32528;45.712;9.192;2022-09-28T13:10:35;21.20;79.90
28460;DHT22;32528;45.712;9.192;2022-09-28T13:19:33;21.30;79.50
28460;DHT22;32528;45.712;9.192;2022-09-28T13:21:17;21.20;80.30
28460;DHT22;32528;45.712;9.192;2022-09-28T13:23:56;21.10;79.60
28460;DHT22;32528;45.712;9.192;2022-09-28T13:27:57;21.10;80.70
28460;DHT22;32528;45.712;9.192;2022-09-28T13:30:00;21.10;80.90
28460;DHT22;32528;45.712;9.192;2022-09-28T13:32:02;21.20;81.20
28460;DHT22;32528;45.712;9.192;2022-09-28T13:34:03;21.20;80.30
28460;DHT22;32528;45.712;9.192;2022-09-28T13:38:28;21.20;80.10
28460;DHT22;32528;45.712;9.192;2022-09-28T13:42:53;21.10;80.60
28460;DHT22;32528;45.712;9.192;2022-09-28T13:53:53;20.40;83.10
28460;DHT22;32528;45.712;9.192;2022-09-28T13:58:23;20.10;85.40
28460;DHT22;32528;45.712;9.192;2022-09-28T14:02:39;20.00;84.20
28460;DHT22;32528;45.712;9.192;2022-09-28T14:06:54;19.90;84.30
28460;DHT22;32528;45.712;9.192;2022-09-28T14:15:41;20.00;86.30
28460;DHT22;32528;45.712;9.192;2022-09-28T14:19:45;20.00;84.20
28460;DHT22;32528;45.712;9.192;2022-09-28T14:24:06;20.10;83.80
28460;DHT22;32528;45.712;9.192;2022-09-28T14:30:50;20.30;83.60
28460;DHT22;32528;45.712;9.192;2022-09-28T14:32:54;20.30;84.00
28460;DHT22;32528;45.712;9.192;2022-09-28T14:34:56;20.30;83.40
28460;DHT22;32528;45.712;9.192;2022-09-28T14:36:57;20.40;83.40
28460;DHT22;32528;45.712;9.192;2022-09-28T14:39:17;20.50;83.10
28460;DHT22;32528;45.712;9.192;2022-09-28T14:41:38;20.70;82.30
28460;DHT22;32528;45.712;9.192;2022-09-28T14:45:45;21.00;81.90
28460;DHT22;32528;45.712;9.192;2022-09-28T14:52:18;21.20;80.20
28460;DHT22;32528;45.712;9.192;2022-09-28T14:54:38;21.20;80.10
28460;DHT22;32528;45.712;9.192;2022-09-28T14:56:50;21.10;80.90
28460;DHT22;32528;45.712;9.192;2022-09-28T14:58:56;21.10;81.50
28460;DHT22;32528;45.712;9.192;2022-09-28T15:00:59;20.80;81.40
28460;DHT22;32528;45.712;9.192;2022-09-28T15:03:03;20.60;82.60
28460;DHT22;32528;45.712;9.192;2022-09-28T15:05:11;20.50;83.30
28460;DHT22;32528;45.712;9.192;2022-09-28T15:07:18;20.50;83.50
28460;DHT22;32528;45.712;9.192;2022-09-28T15:11:28;20.70;82.40
28460;DHT22;32528;45.712;9.192;2022-09-28T15:13:29;20.70;82.30
28460;DHT22;32528;45.712;9.192;2022-09-28T15:15:36;20.90;82.50
28460;DHT22;32528;45.712;9.192;2022-09-28T15:17:38;21.00;82.10
28460;DHT22;32528;45.712;9.192;2022-09-28T15:19:41;21.10;82.20
28460;DHT22;32528;45.712;9.192;2022-09-28T15:21:45;21.20;81.60
28460;DHT22;32528;45.712;9.192;2022-09-28T15:23:47;21.30;81.20
28460;DHT22;32528;45.712;9.192;2022-09-28T15:25:52;21.50;80.10
28460;DHT22;32528;45.712;9.192;2022-09-28T15:27:55;21.60;79.50
28460;DHT22;32528;45.712;9.192;2022-09-28T15:29:59;21.50;79.60
28460;DHT22;32528;45.712;9.192;2022-09-28T15:32:00;21.60;79.70
28460;DHT22;32528;45.712;9.192;2022-09-28T15:34:01;22.00;79.70
28460;DHT22;32528;45.712;9.192;2022-09-28T15:36:21;22.70;79.40
28460;DHT22;32528;45.712;9.192;2022-09-28T15:38:23;23.90;75.40
28460;DHT22;32528;45.712;9.192;2022-09-28T15:40:32;23.80;73.30
28460;DHT22;32528;45.712;9.192;2022-09-28T15:42:34;23.30;74.80
28460;DHT22;32528;45.712;9.192;2022-09-28T15:44:36;22.70;76.60
28460;DHT22;32528;45.712;9.192;2022-09-28T15:46:41;22.10;78.30
28460;DHT22;32528;45.712;9.192;2022-09-28T15:50:59;21.00;80.60
28460;DHT22;32528;45.712;9.192;2022-09-28T15:53:01;20.70;82.20
28460;DHT22;32528;45.712;9.192;2022-09-28T15:55:24;20.50;83.00
28460;DHT22;32528;45.712;9.192;2022-09-28T15:57:27;20.40;84.20
28460;DHT22;32528;45.712;9.192;2022-09-28T15:59:32;20.20;84.90
28460;DHT22;32528;45.712;9.192;2022-09-28T16:01:37;20.10;85.90
28460;DHT22;32528;45.712;9.192;2022-09-28T16:03:38;20.00;85.40
28460;DHT22;32528;45.712;9.192;2022-09-28T16:07:44;19.70;85.80
28460;DHT22;32528;45.712;9.192;2022-09-28T16:11:52;19.50;86.50
28460;DHT22;32528;45.712;9.192;2022-09-28T16:13:57;19.50;87.00
28460;DHT22;32528;45.712;9.192;2022-09-28T16:16:01;19.40;86.90
28460;DHT22;32528;45.712;9.192;2022-09-28T16:18:03;19.40;86.80